Time,TemperatureF,DewpointF,PressureIn,WindDirection,WindDirectionDegrees,WindSpeedMPH,WindSpeedGustMPH,Humidity,HourlyPrecipIn,Conditions,Clouds,dailyrainin,SoftwareType,DateUTC
2013-07-02 00:01:00,46.4,39.2,30.22,WSW,247,0.0,0.0,76,0.00,,,0.00,WUHU21636XXSP,2013-07-02 04:01:00,
2013-07-02 00:06:00,46.2,39.0,30.22,WSW,247,0.0,0.0,76,0.00,,,0.00,WUHU21636XXSP,2013-07-02 04:06:00,
2013-07-02 00:11:00,46.0,39.6,30.22,WSW,247,0.0,0.0,78,0.00,,,0.00,WUHU21636XXSP,2013-07-02 04:11:00,
2013-07-02 00:16:00,46.0,39.6,30.22,WSW,247,0.0,0.0,80,0.00,,,0.00,WUHU21636XXSP,2013-07-02 04:16:00,
2013-07-02 00:21:00,46.0,39.6,30.22,WSW,247,0.0,0.0,81,0.00,,,0.00,WUHU21636XXSP,2013-07-02 04:21:00,
2013-07-02 00:26:00,45.7,40.1,30.22,WSW,247,0.0,0.0,80,0.00,,,0.00,WUHU21636XXSP,2013-07-02 04:26:00,
2013-07-02 00:31:00,45.3,39.7,30.22,WSW,247,0.0,0.0,81,0.00,,,0.00,WUHU21636XXSP,2013-07-02 04:31:00,
2013-07-02 00:36:00,45.3,39.7,30.22,WSW,247,0.0,0.0,80,0.00,,,0.00,WUHU21636XXSP,2013-07-02 04:36:00,
2013-07-02 00:41:00,45.1,39.9,30.22,WSW,247,0.0,0.0,82,0.00,,,0.00,WUHU21636XXSP,2013-07-02 04:41:00,
2013-07-02 00:46:00,45.1,39.9,30.22,WSW,247,0.0,0.0,82,0.00,,,0.00,WUHU21636XXSP,2013-07-02 04:46:00,
2013-07-02 00:51:00,45.0,39.7,30.22,WSW,247,0.0,0.0,82,0.00,,,0.00,WUHU21636XXSP,2013-07-02 04:51:00,
2013-07-02 00:56:00,44.4,39.2,30.22,WSW,247,0.0,0.0,82,0.00,,,0.00,WUHU21636XXSP,2013-07-02 04:56:00,
2013-07-02 01:01:00,44.4,39.2,30.22,WSW,247,0.0,0.0,82,0.00,,,0.00,WUHU21636XXSP,2013-07-02 05:01:00,
2013-07-02 01:06:00,44.4,39.2,30.22,WSW,247,0.0,0.0,82,0.00,,,0.00,WUHU21636XXSP,2013-07-02 05:06:00,
2013-07-02 01:11:00,44.2,39.9,30.22,WSW,247,0.0,0.0,85,0.00,,,0.00,WUHU21636XXSP,2013-07-02 05:11:00,
2013-07-02 01:16:00,44.2,39.9,30.22,WSW,247,0.0,0.0,84,0.00,,,0.00,WUHU21636XXSP,2013-07-02 05:16:00,
2013-07-02 01:21:00,43.9,39.2,30.22,WSW,247,0.0,0.0,84,0.00,,,0.00,WUHU21636XXSP,2013-07-02 05:21:00,
2013-07-02 01:26:00,43.7,39.0,30.22,WSW,247,0.0,0.0,84,0.00,,,0.00,WUHU21636XXSP,2013-07-02 05:26:00,
2013-07-02 01:31:00,43.5,38.8,30.22,WSW,247,0.0,0.0,84,0.00,,,0.00,WUHU21636XXSP,2013-07-02 05:31:00,
2013-07-02 01:36:00,43.3,39.0,30.22,WSW,247,0.0,0.0,85,0.00,,,0.00,WUHU21636XXSP,2013-07-02 05:36:00,
2013-07-02 01:41:00,43.2,38.5,30.22,WSW,247,0.0,0.0,84,0.00,,,0.00,WUHU21636XXSP,2013-07-02 05:41:00,
2013-07-02 01:46:00,43.0,38.3,30.22,WSW,247,0.0,0.0,84,0.00,,,0.00,WUHU21636XXSP,2013-07-02 05:46:00,
2013-07-02 01:51:00,42.8,38.1,30.22,WSW,247,0.0,0.0,84,0.00,,,0.00,WUHU21636XXSP,2013-07-02 05:51:00,
2013-07-02 01:56:00,42.6,38.3,30.22,WSW,247,0.0,0.0,85,0.00,,,0.00,WUHU21636XXSP,2013-07-02 05:56:00,
2013-07-02 02:01:00,42.6,38.3,30.22,WSW,247,0.0,0.0,85,0.00,,,0.00,WUHU21636XXSP,2013-07-02 06:01:00,
2013-07-02 02:06:00,42.6,38.3,30.22,WSW,247,0.0,0.0,85,0.00,,,0.00,WUHU21636XXSP,2013-07-02 06:06:00,
2013-07-02 02:11:00,42.3,37.9,30.22,WSW,247,0.0,0.0,85,0.00,,,0.00,WUHU21636XXSP,2013-07-02 06:11:00,
2013-07-02 02:16:00,42.1,37.8,30.22,WSW,247,0.0,0.0,85,0.00,,,0.00,WUHU21636XXSP,2013-07-02 06:16:00,
2013-07-02 02:21:00,42.1,37.8,30.22,WSW,247,0.0,0.0,85,0.00,,,0.00,WUHU21636XXSP,2013-07-02 06:21:00,
2013-07-02 02:26:00,41.7,37.4,30.22,WSW,247,0.0,0.0,85,0.00,,,0.00,WUHU21636XXSP,2013-07-02 06:26:00,
2013-07-02 02:31:00,41.7,37.4,30.21,WSW,247,0.0,0.0,86,0.00,,,0.00,WUHU21636XXSP,2013-07-02 06:31:00,
2013-07-02 02:36:00,41.7,37.4,30.21,WSW,247,0.0,0.0,86,0.00,,,0.00,WUHU21636XXSP,2013-07-02 06:36:00,
2013-07-02 02:41:00,41.5,37.6,30.21,WSW,247,0.0,0.0,86,0.00,,,0.00,WUHU21636XXSP,2013-07-02 06:41:00,
2013-07-02 02:46:00,41.2,37.2,30.21,WSW,247,0.0,0.0,86,0.00,,,0.00,WUHU21636XXSP,2013-07-02 06:46:00,
2013-07-02 02:51:00,41.2,37.2,30.21,WSW,247,0.0,0.0,86,0.00,,,0.00,WUHU21636XXSP,2013-07-02 06:51:00,
2013-07-02 02:56:00,41.2,37.0,30.21,WSW,247,0.0,0.0,86,0.00,,,0.00,WUHU21636XXSP,2013-07-02 06:56:00,
2013-07-02 03:01:00,41.2,37.2,30.21,WSW,247,0.0,0.0,87,0.00,,,0.00,WUHU21636XXSP,2013-07-02 07:01:00,
2013-07-02 03:06:00,41.4,37.6,30.21,WSW,247,0.0,0.0,87,0.00,,,0.00,WUHU21636XXSP,2013-07-02 07:06:00,
2013-07-02 03:11:00,41.2,37.4,30.21,WSW,247,0.0,0.0,86,0.00,,,0.00,WUHU21636XXSP,2013-07-02 07:11:00,
2013-07-02 03:16:00,41.2,37.4,30.21,WSW,247,0.0,0.0,87,0.00,,,0.00,WUHU21636XXSP,2013-07-02 07:16:00,
2013-07-02 03:21:00,41.2,37.4,30.21,WSW,247,0.0,0.0,87,0.00,,,0.00,WUHU21636XXSP,2013-07-02 07:21:00,
2013-07-02 03:26:00,41.2,37.4,30.21,WSW,247,0.0,0.0,87,0.00,,,0.00,WUHU21636XXSP,2013-07-02 07:26:00,
2013-07-02 03:31:00,40.8,37.0,30.22,WSW,247,0.0,0.0,87,0.00,,,0.00,WUHU21636XXSP,2013-07-02 07:31:00,
2013-07-02 03:36:00,40.8,37.0,30.22,WSW,247,0.0,0.0,87,0.00,,,0.00,WUHU21636XXSP,2013-07-02 07:36:00,
2013-07-02 03:41:00,40.6,36.9,30.22,WSW,247,0.0,0.0,87,0.00,,,0.00,WUHU21636XXSP,2013-07-02 07:41:00,
2013-07-02 03:46:00,40.6,36.9,30.22,WSW,247,0.0,0.0,87,0.00,,,0.00,WUHU21636XXSP,2013-07-02 07:46:00,
2013-07-02 03:51:00,40.6,36.9,30.21,WSW,247,0.0,0.0,88,0.00,,,0.00,WUHU21636XXSP,2013-07-02 07:51:00,
2013-07-02 03:56:00,40.6,36.9,30.21,WSW,247,0.0,0.0,88,0.00,,,0.00,WUHU21636XXSP,2013-07-02 07:56:00,
2013-07-02 04:01:00,40.6,37.0,30.21,WSW,247,0.0,0.0,88,0.00,,,0.00,WUHU21636XXSP,2013-07-02 08:01:00,
2013-07-02 04:06:00,40.6,37.2,30.21,WSW,247,0.0,0.0,88,0.00,,,0.00,WUHU21636XXSP,2013-07-02 08:06:00,
2013-07-02 04:11:00,40.8,37.4,30.21,WSW,247,0.0,0.0,88,0.00,,,0.00,WUHU21636XXSP,2013-07-02 08:11:00,
2013-07-02 04:16:00,40.6,37.2,30.21,WSW,247,0.0,0.0,88,0.00,,,0.00,WUHU21636XXSP,2013-07-02 08:16:00,
2013-07-02 04:21:00,40.6,37.2,30.21,WSW,247,0.0,0.0,88,0.00,,,0.00,WUHU21636XXSP,2013-07-02 08:21:00,
2013-07-02 04:26:00,40.6,37.2,30.21,WSW,247,0.0,0.0,88,0.00,,,0.00,WUHU21636XXSP,2013-07-02 08:26:00,
2013-07-02 04:31:00,40.6,37.2,30.21,WSW,247,0.0,0.0,88,0.00,,,0.00,WUHU21636XXSP,2013-07-02 08:31:00,
2013-07-02 04:36:00,40.6,37.2,30.21,WSW,247,0.0,0.0,88,0.00,,,0.00,WUHU21636XXSP,2013-07-02 08:36:00,
2013-07-02 04:41:00,40.6,37.2,30.21,WSW,247,0.0,0.0,88,0.00,,,0.00,WUHU21636XXSP,2013-07-02 08:41:00,
2013-07-02 04:46:00,40.6,37.2,30.22,WSW,247,0.0,0.0,88,0.00,,,0.00,WUHU21636XXSP,2013-07-02 08:46:00,
2013-07-02 04:51:00,40.6,37.2,30.22,WSW,247,0.0,0.0,88,0.00,,,0.00,WUHU21636XXSP,2013-07-02 08:51:00,
2013-07-02 04:56:00,40.8,37.4,30.22,WSW,247,0.0,0.0,88,0.00,,,0.00,WUHU21636XXSP,2013-07-02 08:56:00,
2013-07-02 05:01:00,40.8,37.4,30.22,WSW,247,0.0,17.9,88,0.00,,,0.00,WUHU21636XXSP,2013-07-02 09:01:00,
2013-07-02 05:06:00,41.2,37.8,30.23,WSW,247,0.0,17.9,88,0.00,,,0.00,WUHU21636XXSP,2013-07-02 09:06:00,
2013-07-02 05:11:00,41.2,37.8,30.23,WSW,247,0.0,0.0,88,0.00,,,0.00,WUHU21636XXSP,2013-07-02 09:11:00,
2013-07-02 05:16:00,41.7,38.7,30.23,WSW,247,0.0,0.0,89,0.00,,,0.00,WUHU21636XXSP,2013-07-02 09:16:00,
2013-07-02 05:21:00,42.3,39.2,30.22,WSW,247,0.0,0.0,89,0.00,,,0.00,WUHU21636XXSP,2013-07-02 09:21:00,
2013-07-02 05:26:00,42.4,39.4,30.22,WSW,247,0.0,0.0,89,0.00,,,0.00,WUHU21636XXSP,2013-07-02 09:26:00,
2013-07-02 05:31:00,42.4,39.4,30.23,WSW,247,0.0,0.0,89,0.00,,,0.00,WUHU21636XXSP,2013-07-02 09:31:00,
2013-07-02 05:36:00,42.4,39.4,30.23,WSW,247,0.0,0.0,89,0.00,,,0.00,WUHU21636XXSP,2013-07-02 09:36:00,
2013-07-02 05:41:00,42.4,39.3,30.23,WSW,247,0.0,0.0,89,0.00,,,0.00,WUHU21636XXSP,2013-07-02 09:41:00,
2013-07-02 05:46:00,42.4,39.4,30.23,WSW,247,0.0,0.0,89,0.00,,,0.00,WUHU21636XXSP,2013-07-02 09:46:00,
2013-07-02 05:51:00,42.4,39.4,30.23,WSW,247,0.0,0.0,89,0.00,,,0.00,WUHU21636XXSP,2013-07-02 09:51:00,
2013-07-02 05:56:00,42.3,39.2,30.23,WSW,247,0.0,0.0,89,0.00,,,0.00,WUHU21636XXSP,2013-07-02 09:56:00,
2013-07-02 06:01:00,42.1,39.0,30.23,WSW,247,0.0,0.0,89,0.00,,,0.00,WUHU21636XXSP,2013-07-02 10:01:00,
2013-07-02 06:06:00,41.9,38.8,30.23,WSW,247,0.0,0.0,89,0.00,,,0.00,WUHU21636XXSP,2013-07-02 10:06:00,
2013-07-02 06:11:00,41.7,38.7,30.23,WSW,247,0.0,0.0,89,0.00,,,0.00,WUHU21636XXSP,2013-07-02 10:11:00,
2013-07-02 06:16:00,41.7,38.7,30.23,WSW,247,0.0,0.0,89,0.00,,,0.00,WUHU21636XXSP,2013-07-02 10:16:00,
2013-07-02 06:21:00,41.7,38.7,30.23,WSW,247,0.0,17.9,89,0.00,,,0.00,WUHU21636XXSP,2013-07-02 10:21:00,
2013-07-02 06:26:00,41.5,38.1,30.23,WSW,247,0.0,17.9,89,0.00,,,0.00,WUHU21636XXSP,2013-07-02 10:26:00,
2013-07-02 06:31:00,41.7,38.7,30.23,WSW,247,0.0,0.0,89,0.00,,,0.00,WUHU21636XXSP,2013-07-02 10:31:00,
2013-07-02 06:36:00,41.9,38.8,30.23,WSW,247,0.0,0.0,89,0.00,,,0.00,WUHU21636XXSP,2013-07-02 10:36:00,
2013-07-02 06:41:00,41.9,38.8,30.23,WSW,247,0.0,0.0,89,0.00,,,0.00,WUHU21636XXSP,2013-07-02 10:41:00,
2013-07-02 06:46:00,41.9,38.8,30.23,WSW,247,0.0,0.0,89,0.00,,,0.00,WUHU21636XXSP,2013-07-02 10:46:00,
2013-07-02 06:51:00,41.9,38.8,30.23,WSW,247,0.0,0.0,89,0.00,,,0.00,WUHU21636XXSP,2013-07-02 10:51:00,
2013-07-02 06:56:00,41.9,38.8,30.23,WSW,247,0.0,0.0,89,0.00,,,0.00,WUHU21636XXSP,2013-07-02 10:56:00,
2013-07-02 07:01:00,41.7,38.7,30.23,WSW,247,0.0,0.0,89,0.00,,,0.00,WUHU21636XXSP,2013-07-02 11:01:00,
2013-07-02 07:06:00,41.9,38.8,30.23,WSW,247,0.0,0.0,89,0.00,,,0.00,WUHU21636XXSP,2013-07-02 11:06:00,
2013-07-02 07:11:00,42.4,39.4,30.23,WSW,247,0.0,0.0,89,0.00,,,0.00,WUHU21636XXSP,2013-07-02 11:11:00,
2013-07-02 07:16:00,42.4,39.4,30.23,WSW,247,0.0,0.0,89,0.00,,,0.00,WUHU21636XXSP,2013-07-02 11:16:00,
2013-07-02 07:21:00,42.6,39.6,30.23,WSW,247,0.0,0.0,89,0.00,,,0.00,WUHU21636XXSP,2013-07-02 11:21:00,
2013-07-02 07:26:00,43.0,39.9,30.23,WSW,247,0.0,0.0,89,0.00,,,0.00,WUHU21636XXSP,2013-07-02 11:26:00,
2013-07-02 07:31:00,43.3,40.3,30.23,WSW,247,0.0,0.0,89,0.00,,,0.00,WUHU21636XXSP,2013-07-02 11:31:00,
2013-07-02 07:36:00,43.5,40.5,30.23,WSW,247,0.0,0.0,89,0.00,,,0.00,WUHU21636XXSP,2013-07-02 11:36:00,
2013-07-02 07:41:00,43.9,40.8,30.23,WSW,247,0.0,0.0,89,0.00,,,0.00,WUHU21636XXSP,2013-07-02 11:41:00,
2013-07-02 07:46:00,44.4,41.4,30.23,WSW,247,0.0,0.0,89,0.00,,,0.00,WUHU21636XXSP,2013-07-02 11:46:00,
2013-07-02 07:51:00,45.0,41.9,30.23,WSW,247,0.0,0.0,89,0.00,,,0.00,WUHU21636XXSP,2013-07-02 11:51:00,
2013-07-02 07:56:00,45.5,42.4,30.23,WSW,247,0.0,0.0,89,0.00,,,0.00,WUHU21636XXSP,2013-07-02 11:56:00,
2013-07-02 08:01:00,46.0,42.6,30.23,WSW,247,0.0,0.0,88,0.00,,,0.00,WUHU21636XXSP,2013-07-02 12:01:00,
2013-07-02 08:06:00,46.4,43.0,30.23,WSW,247,0.0,0.0,88,0.00,,,0.00,WUHU21636XXSP,2013-07-02 12:06:00,
2013-07-02 08:11:00,46.9,43.9,30.24,WSW,247,0.0,0.0,89,0.00,,,0.00,WUHU21636XXSP,2013-07-02 12:11:00,
2013-07-02 08:16:00,47.8,44.8,30.24,WSW,247,0.0,0.0,89,0.00,,,0.00,WUHU21636XXSP,2013-07-02 12:16:00,
2013-07-02 08:21:00,48.4,45.0,30.24,WSW,247,0.0,0.0,88,0.00,,,0.00,WUHU21636XXSP,2013-07-02 12:21:00,
2013-07-02 08:26:00,48.7,45.3,30.23,WSW,247,0.0,0.0,88,0.00,,,0.00,WUHU21636XXSP,2013-07-02 12:26:00,
2013-07-02 08:31:00,49.1,45.7,30.23,WSW,247,0.0,0.0,88,0.00,,,0.00,WUHU21636XXSP,2013-07-02 12:31:00,
2013-07-02 08:36:00,49.8,46.2,30.23,WSW,247,0.0,0.0,88,0.00,,,0.00,WUHU21636XXSP,2013-07-02 12:36:00,
2013-07-02 08:41:00,50.5,46.9,30.23,WSW,247,0.0,0.0,88,0.00,,,0.00,WUHU21636XXSP,2013-07-02 12:41:00,
2013-07-02 08:46:00,51.1,47.5,30.23,WSW,247,0.0,0.0,88,0.00,,,0.00,WUHU21636XXSP,2013-07-02 12:46:00,
2013-07-02 08:51:00,51.4,47.8,30.23,WSW,247,0.0,0.0,88,0.00,,,0.00,WUHU21636XXSP,2013-07-02 12:51:00,
2013-07-02 08:56:00,52.0,48.4,30.23,WSW,247,0.0,0.0,88,0.00,,,0.00,WUHU21636XXSP,2013-07-02 12:56:00,
2013-07-02 09:01:00,52.9,49.3,30.23,WSW,247,0.0,0.0,88,0.00,,,0.00,WUHU21636XXSP,2013-07-02 13:01:00,
2013-07-02 09:06:00,53.6,50.0,30.22,WSW,247,0.0,0.0,88,0.00,,,0.00,WUHU21636XXSP,2013-07-02 13:06:00,
2013-07-02 09:11:00,54.5,51.3,30.22,WSW,247,0.0,0.0,89,0.00,,,0.00,WUHU21636XXSP,2013-07-02 13:11:00,
2013-07-02 09:16:00,55.6,52.3,30.22,WSW,247,0.0,0.0,89,0.00,,,0.00,WUHU21636XXSP,2013-07-02 13:16:00,
2013-07-02 09:21:00,56.3,53.1,30.22,WSW,247,0.0,0.0,89,0.00,,,0.00,WUHU21636XXSP,2013-07-02 13:21:00,
2013-07-02 09:26:00,56.8,53.2,30.22,WSW,247,0.0,0.0,88,0.00,,,0.00,WUHU21636XXSP,2013-07-02 13:26:00,
2013-07-02 09:31:00,57.7,53.4,30.22,WSW,247,0.0,0.0,86,0.00,,,0.00,WUHU21636XXSP,2013-07-02 13:31:00,
2013-07-02 09:36:00,58.8,52.9,30.22,WSW,247,0.0,0.0,81,0.00,,,0.00,WUHU21636XXSP,2013-07-02 13:36:00,
2013-07-02 09:41:00,59.0,53.4,30.22,WSW,247,0.0,0.0,81,0.00,,,0.00,WUHU21636XXSP,2013-07-02 13:41:00,
2013-07-02 09:46:00,60.1,53.2,30.22,WSW,247,0.0,0.0,78,0.00,,,0.00,WUHU21636XXSP,2013-07-02 13:46:00,
2013-07-02 09:51:00,60.6,52.3,30.23,WNW,292,0.0,0.0,74,0.00,,,0.00,WUHU21636XXSP,2013-07-02 13:51:00,
2013-07-02 09:56:00,61.2,52.7,30.23,NNW,337,0.0,0.0,74,0.00,,,0.00,WUHU21636XXSP,2013-07-02 13:56:00,
2013-07-02 10:01:00,61.9,52.3,30.22,NW,315,0.0,0.0,71,0.00,,,0.00,WUHU21636XXSP,2013-07-02 14:01:00,
2013-07-02 10:06:00,62.4,52.5,30.22,WSW,247,0.0,0.0,70,0.00,,,0.00,WUHU21636XXSP,2013-07-02 14:06:00,
2013-07-02 10:11:00,63.0,52.2,30.22,NW,315,0.4,0.4,68,0.00,,,0.00,WUHU21636XXSP,2013-07-02 14:11:00,
2013-07-02 10:16:00,63.7,52.3,30.22,NW,315,0.0,0.4,69,0.00,,,0.00,WUHU21636XXSP,2013-07-02 14:16:00,
2013-07-02 10:21:00,64.9,52.0,30.21,NW,315,0.0,0.8,63,0.00,,,0.00,WUHU21636XXSP,2013-07-02 14:21:00,
2013-07-02 10:26:00,65.1,52.9,30.21,NW,315,0.0,0.8,63,0.00,,,0.00,WUHU21636XXSP,2013-07-02 14:26:00,
2013-07-02 10:31:00,66.0,54.1,30.21,SE,135,0.0,0.0,65,0.00,,,0.00,WUHU21636XXSP,2013-07-02 14:31:00,
2013-07-02 10:36:00,66.6,53.4,30.21,SSE,157,0.0,0.0,63,0.00,,,0.00,WUHU21636XXSP,2013-07-02 14:36:00,
2013-07-02 10:41:00,66.9,52.5,30.21,SSE,157,0.0,0.0,60,0.00,,,0.00,WUHU21636XXSP,2013-07-02 14:41:00,
2013-07-02 10:46:00,66.9,52.9,30.21,NW,315,0.0,5.3,61,0.00,,,0.00,WUHU21636XXSP,2013-07-02 14:46:00,
2013-07-02 10:51:00,66.7,52.3,30.21,SSE,157,0.0,5.3,58,0.00,,,0.00,WUHU21636XXSP,2013-07-02 14:51:00,
2013-07-02 10:56:00,67.1,53.1,30.21,NNW,337,0.6,0.6,61,0.00,,,0.00,WUHU21636XXSP,2013-07-02 14:56:00,
2013-07-02 11:01:00,67.6,50.7,30.21,ENE,67,1.1,1.1,55,0.00,,,0.00,WUHU21636XXSP,2013-07-02 15:01:00,
2013-07-02 11:06:00,68.2,51.8,30.21,SE,135,2.0,2.0,56,0.00,,,0.00,WUHU21636XXSP,2013-07-02 15:06:00,
2013-07-02 11:11:00,68.7,52.3,30.21,ESE,112,0.0,2.0,56,0.00,,,0.00,WUHU21636XXSP,2013-07-02 15:11:00,
2013-07-02 11:16:00,69.4,52.5,30.21,ESE,112,1.1,2.0,53,0.00,,,0.00,WUHU21636XXSP,2013-07-02 15:16:00,
2013-07-02 11:21:00,69.4,52.5,30.21,SE,135,0.0,1.1,53,0.00,,,0.00,WUHU21636XXSP,2013-07-02 15:21:00,
2013-07-02 11:26:00,69.6,51.6,30.21,West,270,0.4,1.1,53,0.00,,,0.00,WUHU21636XXSP,2013-07-02 15:26:00,
2013-07-02 11:31:00,70.2,51.1,30.21,ESE,112,0.0,0.4,51,0.00,,,0.00,WUHU21636XXSP,2013-07-02 15:31:00,
2013-07-02 11:36:00,70.3,50.7,30.21,North,0,3.5,8.2,50,0.00,,,0.00,WUHU21636XXSP,2013-07-02 15:36:00,
2013-07-02 11:42:00,70.5,50.4,30.21,South,180,0.0,8.2,49,0.00,,,0.00,WUHU21636XXSP,2013-07-02 15:42:00,
2013-07-02 11:47:00,71.1,50.2,30.21,ENE,67,0.0,0.6,48,0.00,,,0.00,WUHU21636XXSP,2013-07-02 15:47:00,
2013-07-02 11:52:00,71.2,48.6,30.20,South,180,0.0,1.3,47,0.00,,,0.00,WUHU21636XXSP,2013-07-02 15:52:00,
2013-07-02 11:57:00,70.9,46.6,30.20,ENE,67,0.0,10.7,42,0.00,,,0.00,WUHU21636XXSP,2013-07-02 15:57:00,
2013-07-02 12:01:00,71.2,48.0,30.20,SE,135,0.0,10.7,44,0.00,,,0.00,WUHU21636XXSP,2013-07-02 16:01:00,
2013-07-02 12:06:00,71.8,47.8,30.20,SE,135,2.2,4.4,43,0.00,,,0.00,WUHU21636XXSP,2013-07-02 16:06:00,
2013-07-02 12:11:00,72.3,47.8,30.20,SSE,157,3.1,8.0,42,0.00,,,0.00,WUHU21636XXSP,2013-07-02 16:11:00,
2013-07-02 12:17:00,73.2,49.3,30.20,SE,135,0.6,8.0,43,0.00,,,0.00,WUHU21636XXSP,2013-07-02 16:17:00,
2013-07-02 12:22:00,73.9,49.3,30.20,NE,45,4.0,19.0,42,0.00,,,0.00,WUHU21636XXSP,2013-07-02 16:22:00,
2013-07-02 12:27:00,74.5,49.1,30.20,ENE,67,1.5,19.0,41,0.00,,,0.00,WUHU21636XXSP,2013-07-02 16:27:00,
2013-07-02 12:32:00,75.0,50.7,30.20,West,270,0.0,7.8,38,0.00,,,0.00,WUHU21636XXSP,2013-07-02 16:32:00,
2013-07-02 12:37:00,76.3,48.7,30.20,SSW,202,3.1,3.1,38,0.00,,,0.00,WUHU21636XXSP,2013-07-02 16:37:00,
2013-07-02 12:42:00,77.2,52.2,30.20,SW,225,0.8,8.0,42,0.00,,,0.00,WUHU21636XXSP,2013-07-02 16:42:00,
2013-07-02 12:47:00,77.5,49.1,30.20,SW,225,1.7,8.0,37,0.00,,,0.00,WUHU21636XXSP,2013-07-02 16:47:00,
2013-07-02 12:52:00,76.8,47.7,30.20,SE,135,3.8,3.8,36,0.00,,,0.00,WUHU21636XXSP,2013-07-02 16:52:00,
2013-07-02 12:57:00,77.4,51.1,30.20,ESE,112,2.4,3.8,34,0.00,,,0.00,WUHU21636XXSP,2013-07-02 16:57:00,
2013-07-02 13:02:00,76.6,47.5,30.19,SSE,157,2.4,3.5,36,0.00,,,0.00,WUHU21636XXSP,2013-07-02 17:02:00,
2013-07-02 13:07:00,75.9,44.6,30.19,SSE,157,3.5,5.5,33,0.00,,,0.00,WUHU21636XXSP,2013-07-02 17:07:00,
2013-07-02 13:12:00,75.6,47.8,30.19,SE,135,2.9,5.5,38,0.00,,,0.00,WUHU21636XXSP,2013-07-02 17:12:00,
2013-07-02 13:17:00,75.2,46.9,30.19,SE,135,4.6,4.6,37,0.00,,,0.00,WUHU21636XXSP,2013-07-02 17:17:00,
2013-07-02 13:22:00,75.0,48.2,30.19,SE,135,3.5,4.6,39,0.00,,,0.00,WUHU21636XXSP,2013-07-02 17:22:00,
2013-07-02 13:27:00,74.8,50.7,30.19,WNW,292,2.2,4.6,43,0.00,,,0.00,WUHU21636XXSP,2013-07-02 17:27:00,
2013-07-02 13:32:00,74.5,46.2,30.19,SE,135,1.3,19.4,37,0.00,,,0.00,WUHU21636XXSP,2013-07-02 17:32:00,
2013-07-02 13:37:00,74.5,42.4,30.19,SE,135,5.1,31.0,32,0.00,,,0.00,WUHU21636XXSP,2013-07-02 17:37:00,
2013-07-02 13:42:00,74.1,44.4,30.19,SSE,157,0.0,31.0,35,0.00,,,0.00,WUHU21636XXSP,2013-07-02 17:42:00,
2013-07-02 13:47:00,74.1,44.4,30.19,ESE,112,0.0,5.1,35,0.00,,,0.00,WUHU21636XXSP,2013-07-02 17:47:00,
2013-07-02 13:52:00,74.5,43.3,30.19,SE,135,6.7,10.9,33,0.00,,,0.00,WUHU21636XXSP,2013-07-02 17:52:00,
2013-07-02 13:57:00,74.1,43.7,30.19,SE,135,2.0,10.9,35,0.00,,,0.00,WUHU21636XXSP,2013-07-02 17:57:00,
2013-07-02 14:02:00,74.5,46.2,30.19,SSE,157,2.2,7.3,37,0.00,,,0.00,WUHU21636XXSP,2013-07-02 18:02:00,
2013-07-02 14:07:00,74.1,46.0,30.19,SSE,157,5.3,12.7,37,0.00,,,0.00,WUHU21636XXSP,2013-07-02 18:07:00,
2013-07-02 14:12:00,73.9,47.3,30.19,SE,135,2.2,12.7,39,0.00,,,0.00,WUHU21636XXSP,2013-07-02 18:12:00,
2013-07-02 14:17:00,74.8,50.7,30.19,SE,135,2.0,5.3,43,0.00,,,0.00,WUHU21636XXSP,2013-07-02 18:17:00,
2013-07-02 14:22:00,76.3,50.2,30.19,NW,315,0.0,2.2,40,0.00,,,0.00,WUHU21636XXSP,2013-07-02 18:22:00,
2013-07-02 14:27:00,76.5,48.0,30.19,ENE,67,0.0,2.0,39,0.00,,,0.00,WUHU21636XXSP,2013-07-02 18:27:00,
2013-07-02 14:32:00,75.7,50.4,30.19,ENE,67,2.4,2.4,41,0.00,,,0.00,WUHU21636XXSP,2013-07-02 18:32:00,
2013-07-02 14:37:00,75.0,49.1,30.19,ESE,112,0.0,8.7,40,0.00,,,0.00,WUHU21636XXSP,2013-07-02 18:37:00,
2013-07-02 14:42:00,74.7,48.0,30.19,SE,135,4.0,29.5,39,0.00,,,0.00,WUHU21636XXSP,2013-07-02 18:42:00,
2013-07-02 14:47:00,74.8,49.5,30.19,NNW,337,0.6,29.5,41,0.00,,,0.00,WUHU21636XXSP,2013-07-02 18:47:00,
2013-07-02 14:52:00,74.8,50.7,30.19,SSE,157,0.6,10.9,40,0.00,,,0.00,WUHU21636XXSP,2013-07-02 18:52:00,
2013-07-02 14:57:00,74.3,50.2,30.19,SE,135,2.9,10.9,43,0.00,,,0.00,WUHU21636XXSP,2013-07-02 18:57:00,
2013-07-02 15:02:00,73.6,50.2,30.18,NW,315,6.0,9.6,44,0.00,,,0.00,WUHU21636XXSP,2013-07-02 19:02:00,
2013-07-02 15:07:00,73.6,51.3,30.18,NW,315,0.0,12.0,45,0.00,,,0.00,WUHU21636XXSP,2013-07-02 19:07:00,
2013-07-02 15:12:00,73.8,50.5,30.18,NW,315,0.0,12.0,45,0.00,,,0.00,WUHU21636XXSP,2013-07-02 19:12:00,
2013-07-02 15:17:00,73.0,51.6,30.18,NNW,337,0.0,3.5,47,0.00,,,0.00,WUHU21636XXSP,2013-07-02 19:17:00,
2013-07-02 15:22:00,72.7,51.6,30.18,NW,315,0.0,3.5,48,0.00,,,0.00,WUHU21636XXSP,2013-07-02 19:22:00,
2013-07-02 15:27:00,72.7,50.5,30.19,West,270,0.0,0.0,48,0.00,,,0.00,WUHU21636XXSP,2013-07-02 19:27:00,
2013-07-02 15:32:00,72.5,48.0,30.19,ESE,112,0.0,0.0,42,0.00,,,0.00,WUHU21636XXSP,2013-07-02 19:32:00,
2013-07-02 15:37:00,72.5,48.0,30.18,SE,135,0.0,3.3,43,0.00,,,0.00,WUHU21636XXSP,2013-07-02 19:37:00,
2013-07-02 15:42:00,72.3,48.9,30.18,SE,135,0.0,3.3,44,0.00,,,0.00,WUHU21636XXSP,2013-07-02 19:42:00,
2013-07-02 15:47:00,71.8,49.1,30.18,SE,135,4.0,4.0,45,0.00,,,0.00,WUHU21636XXSP,2013-07-02 19:47:00,
2013-07-02 15:52:00,72.0,50.1,30.18,ENE,67,2.2,4.0,46,0.00,,,0.00,WUHU21636XXSP,2013-07-02 19:52:00,
2013-07-02 15:57:00,72.1,50.0,30.18,NNW,337,0.4,4.0,46,0.00,,,0.00,WUHU21636XXSP,2013-07-02 19:57:00,
2013-07-02 16:02:00,71.8,48.6,30.18,SE,135,2.6,2.6,44,0.00,,,0.00,WUHU21636XXSP,2013-07-02 20:02:00,
2013-07-02 16:07:00,72.1,49.5,30.18,SE,135,1.5,2.6,45,0.00,,,0.00,WUHU21636XXSP,2013-07-02 20:07:00,
2013-07-02 16:12:00,72.1,49.5,30.18,SE,135,4.4,4.4,45,0.00,,,0.00,WUHU21636XXSP,2013-07-02 20:12:00,
2013-07-02 16:17:00,72.0,49.3,30.18,WSW,247,0.0,4.4,45,0.00,,,0.00,WUHU21636XXSP,2013-07-02 20:17:00,
2013-07-02 16:22:00,72.0,49.3,30.18,SW,225,0.0,2.4,45,0.00,,,0.00,WUHU21636XXSP,2013-07-02 20:22:00,
2013-07-02 16:27:00,72.3,49.6,30.18,SE,135,0.0,0.0,45,0.00,,,0.00,WUHU21636XXSP,2013-07-02 20:27:00,
2013-07-02 16:32:00,73.8,50.9,30.18,NW,315,0.2,0.2,45,0.00,,,0.00,WUHU21636XXSP,2013-07-02 20:32:00,
2013-07-02 16:37:00,73.6,48.9,30.18,SE,135,0.0,0.6,42,0.00,,,0.00,WUHU21636XXSP,2013-07-02 20:37:00,
2013-07-02 16:42:00,73.4,48.7,30.17,ENE,67,0.0,0.6,42,0.00,,,0.00,WUHU21636XXSP,2013-07-02 20:42:00,
2013-07-02 16:47:00,73.2,48.6,30.17,South,180,0.0,0.2,42,0.00,,,0.00,WUHU21636XXSP,2013-07-02 20:47:00,
2013-07-02 16:52:00,73.0,49.6,30.17,SSW,202,0.0,4.0,42,0.00,,,0.00,WUHU21636XXSP,2013-07-02 20:52:00,
2013-07-02 16:57:00,73.0,49.6,30.17,NNW,337,0.0,4.0,43,0.00,,,0.00,WUHU21636XXSP,2013-07-02 20:57:00,
2013-07-02 17:02:00,73.0,50.2,30.17,NE,45,0.0,1.3,45,0.00,,,0.00,WUHU21636XXSP,2013-07-02 21:02:00,
2013-07-02 17:07:00,73.6,50.2,30.17,NW,315,0.8,1.3,44,0.00,,,0.00,WUHU21636XXSP,2013-07-02 21:07:00,
2013-07-02 17:12:00,74.1,50.5,30.17,West,270,3.1,3.1,42,0.00,,,0.00,WUHU21636XXSP,2013-07-02 21:12:00,
2013-07-02 17:17:00,73.6,48.9,30.17,SE,135,0.0,3.5,42,0.00,,,0.00,WUHU21636XXSP,2013-07-02 21:17:00,
2013-07-02 17:22:00,73.6,48.9,30.16,SE,135,0.0,3.5,41,0.00,,,0.00,WUHU21636XXSP,2013-07-02 21:22:00,
2013-07-02 17:27:00,74.5,50.4,30.16,North,0,2.9,2.9,43,0.00,,,0.00,WUHU21636XXSP,2013-07-02 21:27:00,
2013-07-02 17:32:00,75.7,50.4,30.16,NW,315,0.0,2.9,41,0.00,,,0.00,WUHU21636XXSP,2013-07-02 21:32:00,
2013-07-02 17:37:00,75.9,49.8,30.16,West,270,1.5,6.4,40,0.00,,,0.00,WUHU21636XXSP,2013-07-02 21:37:00,
2013-07-02 17:42:00,75.4,50.5,30.16,ENE,67,2.0,6.9,42,0.00,,,0.00,WUHU21636XXSP,2013-07-02 21:42:00,
2013-07-02 17:47:00,74.8,52.5,30.16,West,270,0.8,7.9,46,0.00,,,0.00,WUHU21636XXSP,2013-07-02 21:47:00,
2013-07-02 17:52:00,74.8,52.5,30.16,West,270,0.0,7.9,43,0.00,,,0.00,WUHU21636XXSP,2013-07-02 21:52:00,
2013-07-02 17:57:00,74.8,50.0,30.16,West,270,0.0,5.3,42,0.00,,,0.00,WUHU21636XXSP,2013-07-02 21:57:00,
2013-07-02 18:02:00,74.8,50.0,30.16,ESE,112,0.0,5.3,43,0.00,,,0.00,WUHU21636XXSP,2013-07-02 22:02:00,
2013-07-02 18:07:00,75.2,52.3,30.15,NW,315,1.3,1.3,45,0.00,,,0.00,WUHU21636XXSP,2013-07-02 22:07:00,
2013-07-02 18:12:00,75.9,50.5,30.15,NNE,22,6.2,8.0,41,0.00,,,0.00,WUHU21636XXSP,2013-07-02 22:12:00,
2013-07-02 18:17:00,75.9,51.1,30.15,East,90,0.0,8.0,42,0.00,,,0.00,WUHU21636XXSP,2013-07-02 22:17:00,
2013-07-02 18:22:00,75.9,51.1,30.15,NW,315,3.3,5.3,42,0.00,,,0.00,WUHU21636XXSP,2013-07-02 22:22:00,
2013-07-02 18:27:00,75.4,50.0,30.15,SSE,157,0.0,3.3,41,0.00,,,0.00,WUHU21636XXSP,2013-07-02 22:27:00,
2013-07-02 18:32:00,74.8,49.5,30.15,NNE,22,4.2,4.2,41,0.00,,,0.00,WUHU21636XXSP,2013-07-02 22:32:00,
2013-07-02 18:37:00,74.8,49.5,30.15,South,180,0.0,4.2,41,0.00,,,0.00,WUHU21636XXSP,2013-07-02 22:37:00,
2013-07-02 18:42:00,75.4,51.3,30.15,SSE,157,1.7,4.2,43,0.00,,,0.00,WUHU21636XXSP,2013-07-02 22:42:00,
2013-07-02 18:47:00,75.4,50.5,30.15,ENE,67,0.0,1.7,42,0.00,,,0.00,WUHU21636XXSP,2013-07-02 22:47:00,
2013-07-02 18:52:00,74.8,51.3,30.15,ESE,112,0.0,4.9,44,0.00,,,0.00,WUHU21636XXSP,2013-07-02 22:52:00,
2013-07-02 18:57:00,75.6,51.4,30.15,SSE,157,0.0,4.9,43,0.00,,,0.00,WUHU21636XXSP,2013-07-02 22:57:00,
2013-07-02 19:02:00,76.3,50.7,30.15,SSE,157,2.9,2.9,41,0.00,,,0.00,WUHU21636XXSP,2013-07-02 23:02:00,
2013-07-02 19:07:00,76.1,51.3,30.15,SE,135,0.0,2.9,42,0.00,,,0.00,WUHU21636XXSP,2013-07-02 23:07:00,
2013-07-02 19:12:00,75.2,49.8,30.15,WSW,247,0.0,2.9,41,0.00,,,0.00,WUHU21636XXSP,2013-07-02 23:12:00,
2013-07-02 19:17:00,75.2,50.4,30.15,South,180,0.0,2.4,42,0.00,,,0.00,WUHU21636XXSP,2013-07-02 23:17:00,
2013-07-02 19:22:00,75.0,49.6,30.15,SSE,157,0.0,1.1,43,0.00,,,0.00,WUHU21636XXSP,2013-07-02 23:22:00,
2013-07-02 19:27:00,74.8,50.0,30.15,ESE,112,0.0,1.1,42,0.00,,,0.00,WUHU21636XXSP,2013-07-02 23:27:00,
2013-07-02 19:29:00,75.0,50.2,30.15,SE,135,0.6,1.1,42,0.00,,,0.00,WUHU21636XXSP,2013-07-02 23:29:00,
2013-07-02 19:34:00,75.0,50.2,30.15,NNE,22,2.9,2.9,41,0.00,,,0.00,WUHU21636XXSP,2013-07-02 23:34:00,
2013-07-02 19:39:00,74.8,50.7,30.16,SSE,157,0.0,2.9,43,0.00,,,0.00,WUHU21636XXSP,2013-07-02 23:39:00,
2013-07-02 19:44:00,74.8,50.7,30.15,West,270,0.0,0.0,42,0.00,,,0.00,WUHU21636XXSP,2013-07-02 23:44:00,
2013-07-02 19:49:00,74.8,50.1,30.15,NW,315,0.0,2.2,42,0.00,,,0.00,WUHU21636XXSP,2013-07-02 23:49:00,
2013-07-02 19:54:00,74.3,50.2,30.16,SE,135,0.0,2.2,43,0.00,,,0.00,WUHU21636XXSP,2013-07-02 23:54:00,
2013-07-02 19:59:00,74.3,50.2,30.16,SE,135,0.0,0.0,43,0.00,,,0.00,WUHU21636XXSP,2013-07-02 23:59:00,
2013-07-02 20:01:00,74.5,50.4,30.16,SE,135,0.6,0.6,43,0.00,,,0.00,WUHU21636XXSP,2013-07-03 00:01:00,
2013-07-02 20:06:00,74.1,50.0,30.16,SE,135,0.0,0.6,43,0.00,,,0.00,WUHU21636XXSP,2013-07-03 00:06:00,
2013-07-02 20:11:00,73.9,49.3,30.16,SE,135,0.0,0.6,42,0.00,,,0.00,WUHU21636XXSP,2013-07-03 00:11:00,
2013-07-02 20:16:00,73.8,49.6,30.16,SE,135,0.0,0.0,43,0.00,,,0.00,WUHU21636XXSP,2013-07-03 00:16:00,
2013-07-02 20:21:00,73.2,49.8,30.16,SE,135,2.4,2.4,44,0.00,,,0.00,WUHU21636XXSP,2013-07-03 00:21:00,
2013-07-02 20:23:00,72.7,49.8,30.16,SE,135,1.3,2.4,45,0.00,,,0.00,WUHU21636XXSP,2013-07-03 00:23:00,
2013-07-02 20:24:00,72.1,49.5,30.16,SE,135,0.0,2.4,45,0.00,,,0.00,WUHU21636XXSP,2013-07-03 00:24:00,
2013-07-02 20:28:00,72.0,49.8,30.16,SE,135,0.0,2.4,46,0.00,,,0.00,WUHU21636XXSP,2013-07-03 00:28:00,
2013-07-02 20:33:00,70.9,49.5,30.16,SE,135,0.0,1.3,47,0.00,,,0.00,WUHU21636XXSP,2013-07-03 00:33:00,
2013-07-02 20:38:00,70.3,49.6,30.16,SE,135,0.0,0.0,48,0.00,,,0.00,WUHU21636XXSP,2013-07-03 00:38:00,
2013-07-02 20:43:00,70.0,49.3,30.16,SE,135,0.0,0.0,49,0.00,,,0.00,WUHU21636XXSP,2013-07-03 00:43:00,
2013-07-02 20:48:00,69.3,49.3,30.16,SE,135,0.0,0.0,49,0.00,,,0.00,WUHU21636XXSP,2013-07-03 00:48:00,
2013-07-02 20:53:00,68.7,48.7,30.16,SE,135,0.0,0.0,49,0.00,,,0.00,WUHU21636XXSP,2013-07-03 00:53:00,
2013-07-02 20:58:00,68.2,48.7,30.16,SE,135,0.0,0.0,50,0.00,,,0.00,WUHU21636XXSP,2013-07-03 00:58:00,
2013-07-02 21:00:00,67.8,48.9,30.16,SE,135,0.0,0.0,51,0.00,,,0.00,WUHU21636XXSP,2013-07-03 01:00:00,
2013-07-02 21:03:00,67.5,49.1,30.16,SE,135,0.0,0.0,52,0.00,,,0.00,WUHU21636XXSP,2013-07-03 01:03:00,
2013-07-02 21:08:00,66.7,48.9,30.16,SE,135,0.0,0.0,53,0.00,,,0.00,WUHU21636XXSP,2013-07-03 01:08:00,
2013-07-02 21:09:00,66.7,48.9,30.16,SE,135,0.0,0.0,53,0.00,,,0.00,WUHU21636XXSP,2013-07-03 01:09:00,
2013-07-02 21:14:00,65.8,48.6,30.16,SE,135,0.0,0.0,54,0.00,,,0.00,WUHU21636XXSP,2013-07-03 01:14:00,
2013-07-02 21:19:00,65.5,48.2,30.16,SE,135,0.0,0.0,54,0.00,,,0.00,WUHU21636XXSP,2013-07-03 01:19:00,
2013-07-02 21:24:00,64.9,48.2,30.16,SE,135,0.0,0.0,55,0.00,,,0.00,WUHU21636XXSP,2013-07-03 01:24:00,
2013-07-02 21:26:00,64.8,48.0,30.16,SE,135,0.0,0.0,55,0.00,,,0.00,WUHU21636XXSP,2013-07-03 01:26:00,
2013-07-02 21:31:00,64.0,48.4,30.16,SE,135,0.0,0.0,57,0.00,,,0.00,WUHU21636XXSP,2013-07-03 01:31:00,
2013-07-02 21:36:00,63.7,48.0,30.16,SE,135,0.0,0.0,57,0.00,,,0.00,WUHU21636XXSP,2013-07-03 01:36:00,
2013-07-02 21:41:00,63.1,48.6,30.16,SE,135,0.0,0.0,59,0.00,,,0.00,WUHU21636XXSP,2013-07-03 01:41:00,
2013-07-02 21:46:00,62.4,48.4,30.16,SE,135,0.0,0.0,60,0.00,,,0.00,WUHU21636XXSP,2013-07-03 01:46:00,
2013-07-02 21:50:00,62.2,48.2,30.16,SE,135,0.0,0.0,61,0.00,,,0.00,WUHU21636XXSP,2013-07-03 01:50:00,
2013-07-02 21:55:00,61.7,48.9,30.16,SE,135,0.0,0.0,63,0.00,,,0.00,WUHU21636XXSP,2013-07-03 01:55:00,
2013-07-02 22:01:00,61.5,49.1,30.16,SE,135,0.0,0.0,64,0.00,,,0.00,WUHU21636XXSP,2013-07-03 02:01:00,
2013-07-02 22:06:00,61.0,49.1,30.16,SE,135,0.0,0.0,66,0.00,,,0.00,WUHU21636XXSP,2013-07-03 02:06:00,
2013-07-02 22:11:00,60.6,50.0,30.16,SE,135,0.0,0.0,68,0.00,,,0.00,WUHU21636XXSP,2013-07-03 02:11:00,
2013-07-02 22:16:00,60.4,49.5,30.17,SE,135,0.0,0.0,67,0.00,,,0.00,WUHU21636XXSP,2013-07-03 02:16:00,
2013-07-02 22:21:00,60.4,49.5,30.17,SE,135,0.0,0.0,71,0.00,,,0.00,WUHU21636XXSP,2013-07-03 02:21:00,
2013-07-02 22:26:00,60.1,51.1,30.17,SE,135,0.0,0.0,72,0.00,,,0.00,WUHU21636XXSP,2013-07-03 02:26:00,
2013-07-02 22:32:00,60.1,51.1,30.17,SE,135,0.0,0.0,71,0.00,,,0.00,WUHU21636XXSP,2013-07-03 02:32:00,
2013-07-02 22:33:00,60.1,51.1,30.17,SE,135,0.0,0.0,71,0.00,,,0.00,WUHU21636XXSP,2013-07-03 02:33:00,
2013-07-02 22:38:00,60.1,51.1,30.17,SE,135,0.0,0.0,71,0.00,,,0.00,WUHU21636XXSP,2013-07-03 02:38:00,
2013-07-02 22:43:00,60.3,50.5,30.16,SE,135,0.0,0.0,70,0.00,,,0.00,WUHU21636XXSP,2013-07-03 02:43:00,
2013-07-02 22:46:00,60.4,51.1,30.16,SE,135,0.0,0.0,71,0.00,,,0.00,WUHU21636XXSP,2013-07-03 02:46:00,
2013-07-02 22:51:00,60.4,51.1,30.16,SE,135,0.0,0.0,73,0.00,,,0.00,WUHU21636XXSP,2013-07-03 02:51:00,
2013-07-02 22:56:00,60.1,51.4,30.16,SE,135,0.0,0.0,73,0.00,,,0.00,WUHU21636XXSP,2013-07-03 02:56:00,
2013-07-02 23:02:00,59.9,50.9,30.16,SE,135,0.0,0.0,72,0.00,,,0.00,WUHU21636XXSP,2013-07-03 03:02:00,
2013-07-02 23:07:00,59.9,50.9,30.16,SE,135,0.0,0.0,71,0.00,,,0.00,WUHU21636XXSP,2013-07-03 03:07:00,
2013-07-02 23:12:00,59.7,50.7,30.15,SE,135,0.0,0.0,72,0.00,,,0.00,WUHU21636XXSP,2013-07-03 03:12:00,
2013-07-02 23:17:00,59.5,50.2,30.15,SE,135,0.0,0.0,70,0.00,,,0.00,WUHU21636XXSP,2013-07-03 03:17:00,
2013-07-02 23:20:00,59.5,50.2,30.15,SE,135,0.0,0.0,71,0.00,,,0.00,WUHU21636XXSP,2013-07-03 03:20:00,
2013-07-02 23:25:00,59.0,50.4,30.15,SE,135,0.0,0.0,73,0.00,,,0.00,WUHU21636XXSP,2013-07-03 03:25:00,
2013-07-02 23:30:00,59.0,50.4,30.15,SE,135,0.0,0.0,72,0.00,,,0.00,WUHU21636XXSP,2013-07-03 03:30:00,
2013-07-02 23:35:00,59.0,50.4,30.15,SE,135,0.0,0.0,73,0.00,,,0.00,WUHU21636XXSP,2013-07-03 03:35:00,
2013-07-02 23:36:00,59.0,50.4,30.15,SE,135,0.0,0.0,73,0.00,,,0.00,WUHU21636XXSP,2013-07-03 03:36:00,
2013-07-02 23:39:00,59.0,50.4,30.16,SE,135,0.0,0.0,72,0.00,,,0.00,WUHU21636XXSP,2013-07-03 03:39:00,
2013-07-02 23:44:00,59.0,50.4,30.16,SE,135,0.0,0.0,71,0.00,,,0.00,WUHU21636XXSP,2013-07-03 03:44:00,
2013-07-02 23:49:00,59.0,50.4,30.16,SE,135,0.0,0.0,75,0.00,,,0.00,WUHU21636XXSP,2013-07-03 03:49:00,
2013-07-02 23:54:00,59.0,50.4,30.16,SE,135,0.0,0.0,74,0.00,,,0.00,WUHU21636XXSP,2013-07-03 03:54:00,
2013-07-02 23:59:00,58.8,50.2,30.16,SE,135,0.0,0.0,73,0.00,,,0.00,WUHU21636XXSP,2013-07-03 03:59:00,